KEVW/EVW METAR and TAF weather

Enter ICAO airport designator
Station Type Date Time Source
KEVW METAR 2019/04/18 09:53 UTC NOAA

KEVW 180953Z AUTO 25011KT 10SM CLR 01/M03 A3032 RMK AO2 SLP248 T00061028 $


Station Type Date Time Source
KEVW Decoded METAR 2019/04/18 09:53 UTC NOAA

EVANSTON-UINTA COUNTY FIELD, WY, United States (KEVW) 41-16N 111-02W 2177M
Apr 18, 2019 - 05:53 AM EDT / 2019.04.18 0953 UTC
Wind: from the WSW (250 degrees) at 13 MPH (11 KT):0
Visibility: 10 mile(s):0
Sky conditions: clear
Temperature: 33.1 F (0.6 C)
Windchill: 23 F (-5 C):1
Dew Point: 27.0 F (-2.8 C)
Relative Humidity: 77%
Pressure (altimeter): 30.32 in. Hg (1026 hPa)
ob: KEVW 180953Z AUTO 25011KT 10SM CLR 01/M03 A3032 RMK AO2 SLP248 T00061028
cycle: 10

Station Type Date Time Source
KEVW TAF 2019/04/18 06:57 UTC NOAA

TAF
AMD KEVW 180554Z 1806/1906 24006KT P6SM FEW040
FM181900 26012G18KT P6SM SKC
FM190300 27012KT P6SM SKC

Example: see airport list